createdAt,value
2017-11-09T00:01:31.178Z,83.90
2017-11-09T00:03:58.093Z,84.10
2017-11-09T00:06:25.077Z,84.20
2017-11-09T00:08:52.018Z,84.30
2017-11-09T00:11:19.764Z,84.60
2017-11-09T00:13:46.688Z,84.60
2017-11-09T00:16:13.578Z,84.50
2017-11-09T00:18:40.525Z,84.30
2017-11-09T00:21:07.440Z,84.30
2017-11-09T00:23:34.343Z,84.60
2017-11-09T00:26:01.265Z,84.40
2017-11-09T00:28:28.547Z,84.90
2017-11-09T00:30:55.456Z,84.90
2017-11-09T00:33:22.379Z,84.60
2017-11-09T00:35:49.273Z,84.60
2017-11-09T00:38:16.603Z,84.80
2017-11-09T00:40:43.569Z,84.80
2017-11-09T00:43:10.867Z,84.60
2017-11-09T00:45:37.803Z,84.50
2017-11-09T00:48:04.693Z,83.70
2017-11-09T00:50:31.579Z,84.10
2017-11-09T00:52:58.489Z,85.00
2017-11-09T00:55:25.770Z,85.80
2017-11-09T00:57:52.691Z,85.80
2017-11-09T01:00:19.986Z,85.80
2017-11-09T01:02:47.006Z,85.80
2017-11-09T01:05:14.290Z,86.00
2017-11-09T01:07:44.982Z,86.00
2017-11-09T01:10:12.287Z,85.70
2017-11-09T01:12:39.206Z,85.70
2017-11-09T01:15:06.170Z,85.30
2017-11-09T01:17:33.087Z,85.50
2017-11-09T01:20:00.379Z,85.40
2017-11-09T01:22:27.309Z,85.40
2017-11-09T01:24:54.271Z,85.40
2017-11-09T01:27:21.171Z,85.30
2017-11-09T01:29:48.475Z,85.40
2017-11-09T01:32:15.404Z,85.40
2017-11-09T01:34:42.349Z,85.10
2017-11-09T01:37:09.243Z,84.90
2017-11-09T01:39:36.154Z,85.00
2017-11-09T01:42:03.059Z,84.90
2017-11-09T01:44:30.371Z,84.30
2017-11-09T01:46:57.275Z,84.30
2017-11-09T01:49:24.600Z,84.60
2017-11-09T01:51:51.488Z,84.60
2017-11-09T01:54:18.432Z,83.90
2017-11-09T01:56:45.367Z,83.70
2017-11-09T01:59:12.268Z,84.50
2017-11-09T02:01:39.252Z,84.80
2017-11-09T02:04:06.256Z,85.00
2017-11-09T02:06:33.159Z,84.90
2017-11-09T02:09:00.056Z,85.00
2017-11-09T02:11:26.981Z,85.00
2017-11-09T02:13:53.879Z,85.00
2017-11-09T02:16:20.811Z,85.10
2017-11-09T02:18:47.698Z,85.20
2017-11-09T02:21:14.618Z,85.20
2017-11-09T02:23:41.992Z,84.90
2017-11-09T02:26:08.885Z,84.90
2017-11-09T02:28:35.815Z,84.80
2017-11-09T02:31:02.708Z,84.70
2017-11-09T02:33:30.039Z,83.90
2017-11-09T02:35:56.942Z,83.90
2017-11-09T02:38:23.851Z,83.80
2017-11-09T02:40:51.170Z,84.00
2017-11-09T02:43:18.074Z,84.00
2017-11-09T02:45:44.987Z,84.40
2017-11-09T02:48:11.886Z,84.40
2017-11-09T02:50:38.808Z,84.50
2017-11-09T02:53:05.712Z,85.10
2017-11-09T02:55:32.603Z,85.10
2017-11-09T02:57:59.518Z,85.00
2017-11-09T03:00:26.815Z,85.70
2017-11-09T03:02:53.727Z,85.70
2017-11-09T03:05:21.016Z,86.30
2017-11-09T03:07:47.930Z,86.30
2017-11-09T03:10:15.243Z,86.70
2017-11-09T03:12:42.142Z,86.70
2017-11-09T03:15:09.159Z,87.10
2017-11-09T03:17:36.456Z,87.10
2017-11-09T03:20:03.362Z,87.20
2017-11-09T03:22:30.312Z,87.20
2017-11-09T03:24:57.212Z,87.00
2017-11-09T03:27:24.126Z,86.90
2017-11-09T03:29:51.027Z,86.50
2017-11-09T03:32:17.944Z,86.50
2017-11-09T03:34:44.832Z,86.30
2017-11-09T03:37:12.190Z,86.20
2017-11-09T03:39:39.543Z,86.10
2017-11-09T03:42:06.534Z,86.10
2017-11-09T03:44:33.451Z,86.20
2017-11-09T03:47:00.731Z,86.20
2017-11-09T03:49:27.642Z,86.20
2017-11-09T03:51:55.009Z,87.00
2017-11-09T03:54:21.935Z,87.00
2017-11-09T03:56:48.887Z,87.10
2017-11-09T03:59:16.177Z,87.40
2017-11-09T04:01:43.103Z,87.40
2017-11-09T04:04:10.458Z,87.50
2017-11-09T04:06:37.741Z,87.20
2017-11-09T04:09:04.655Z,87.20
2017-11-09T04:11:31.935Z,87.00
2017-11-09T04:13:58.859Z,87.00
2017-11-09T04:16:26.204Z,86.80
2017-11-09T04:18:53.550Z,86.80
2017-11-09T04:21:20.506Z,86.80
2017-11-09T04:23:47.816Z,86.20
2017-11-09T04:26:14.809Z,86.20
2017-11-09T04:28:42.179Z,86.30
2017-11-09T04:31:09.472Z,86.10
2017-11-09T04:33:36.471Z,86.10
2017-11-09T04:36:03.786Z,85.40
2017-11-09T04:38:30.663Z,85.40
2017-11-09T04:40:57.650Z,85.30
2017-11-09T04:43:24.558Z,85.00
2017-11-09T04:45:51.875Z,85.00
2017-11-09T04:48:18.854Z,85.00
2017-11-09T04:50:45.815Z,84.40
2017-11-09T04:53:13.172Z,84.40
2017-11-09T04:55:40.484Z,84.40
2017-11-09T04:58:07.370Z,84.40
2017-11-09T05:00:34.737Z,84.90
2017-11-09T05:03:01.672Z,84.90
2017-11-09T05:05:28.987Z,84.70
2017-11-09T05:07:55.879Z,84.70
2017-11-09T05:10:23.185Z,84.30
2017-11-09T05:12:50.167Z,84.30
2017-11-09T05:15:17.131Z,84.00
2017-11-09T05:17:44.061Z,84.00
2017-11-09T05:20:11.358Z,83.50
2017-11-09T05:22:38.276Z,83.50
2017-11-09T05:25:05.207Z,83.40
2017-11-09T05:27:32.559Z,83.60
2017-11-09T05:29:59.511Z,83.60
2017-11-09T05:32:26.854Z,83.50
2017-11-09T05:34:53.819Z,83.50
2017-11-09T05:37:21.126Z,83.40
2017-11-09T05:39:48.052Z,83.40
2017-11-09T05:42:14.946Z,83.00
2017-11-09T05:44:41.911Z,82.70
2017-11-09T05:47:09.188Z,83.20
2017-11-09T05:49:36.113Z,83.20
2017-11-09T05:52:03.400Z,83.60
2017-11-09T05:54:30.287Z,83.60
2017-11-09T05:56:57.204Z,83.40
2017-11-09T05:59:24.131Z,83.80
2017-11-09T06:01:51.014Z,84.50
2017-11-09T06:04:17.944Z,84.60
2017-11-09T06:06:44.837Z,84.70
2017-11-09T06:09:12.107Z,83.80
2017-11-09T06:11:39.020Z,83.80
2017-11-09T06:14:05.902Z,84.00
2017-11-09T06:16:32.806Z,84.10
2017-11-09T06:18:59.695Z,84.10
2017-11-09T06:21:26.606Z,84.40
2017-11-09T06:23:53.522Z,84.10
2017-11-09T06:26:20.542Z,84.10
2017-11-09T06:28:47.451Z,83.70
2017-11-09T06:31:14.759Z,83.50
2017-11-09T06:33:41.743Z,83.50
2017-11-09T06:36:08.658Z,83.80
2017-11-09T06:38:35.637Z,83.70
2017-11-09T06:41:02.522Z,83.30
2017-11-09T06:43:29.438Z,83.10
2017-11-09T06:45:56.831Z,82.10
2017-11-09T06:48:23.835Z,82.10
2017-11-09T06:50:50.729Z,81.60
2017-11-09T06:53:17.669Z,81.70
2017-11-09T06:55:44.572Z,81.80
2017-11-09T06:58:11.530Z,81.70
2017-11-09T07:00:38.834Z,82.00
2017-11-09T07:03:05.723Z,82.00
2017-11-09T07:05:32.965Z,82.40
2017-11-09T07:07:59.883Z,82.70
2017-11-09T07:10:26.763Z,82.10
2017-11-09T07:12:53.711Z,82.30
2017-11-09T07:15:20.595Z,82.40
2017-11-09T07:17:47.534Z,82.30
2017-11-09T07:20:14.450Z,81.40
2017-11-09T07:22:41.740Z,81.40
2017-11-09T07:25:08.646Z,81.40
2017-11-09T07:27:35.590Z,81.30
2017-11-09T07:30:02.484Z,81.30
2017-11-09T07:32:29.395Z,81.30
2017-11-09T07:34:56.718Z,81.70
2017-11-09T07:37:23.688Z,81.70
2017-11-09T07:39:50.674Z,81.90
2017-11-09T07:42:17.583Z,81.80
2017-11-09T07:44:44.521Z,81.80
2017-11-09T07:47:11.414Z,81.90
2017-11-09T07:49:38.298Z,81.80
2017-11-09T07:52:05.264Z,81.20
2017-11-09T07:54:32.155Z,80.90
2017-11-09T07:56:59.047Z,80.40
2017-11-09T07:59:25.955Z,80.70
2017-11-09T08:01:52.874Z,80.60
2017-11-09T08:04:19.805Z,81.30
2017-11-09T08:06:47.094Z,80.80
2017-11-09T08:09:14.039Z,80.80
2017-11-09T08:11:41.045Z,80.90
2017-11-09T08:14:08.396Z,80.20
2017-11-09T08:16:35.274Z,80.20
2017-11-09T08:19:02.287Z,80.40
2017-11-09T08:21:29.167Z,80.80
2017-11-09T08:23:57.700Z,80.80
2017-11-09T08:26:25.852Z,80.80
2017-11-09T08:28:53.289Z,81.00
2017-11-09T08:31:21.689Z,80.90
2017-11-09T08:33:48.677Z,80.80
2017-11-09T08:36:15.610Z,80.00
2017-11-09T08:38:42.500Z,79.60
2017-11-09T08:41:09.384Z,79.50
2017-11-09T08:43:36.303Z,79.60
2017-11-09T08:46:03.219Z,79.00
2017-11-09T08:48:30.574Z,77.70
2017-11-09T08:50:57.915Z,77.70
2017-11-09T08:53:24.862Z,77.70
2017-11-09T08:55:51.795Z,77.90
2017-11-09T08:58:18.751Z,78.40
2017-11-09T09:00:45.639Z,78.40
2017-11-09T09:03:12.533Z,78.40
2017-11-09T09:05:39.454Z,78.40
2017-11-09T09:08:06.338Z,78.60
2017-11-09T09:10:33.282Z,78.60
2017-11-09T09:13:00.198Z,78.50
2017-11-09T09:15:27.094Z,78.20
2017-11-09T09:17:54.434Z,78.30
2017-11-09T09:20:21.390Z,78.20
2017-11-09T09:22:48.698Z,78.00
2017-11-09T09:25:15.609Z,77.90
2017-11-09T09:27:42.530Z,77.30
2017-11-09T09:30:09.452Z,76.60
2017-11-09T09:32:36.918Z,77.40
2017-11-09T09:35:05.147Z,77.70
2017-11-09T09:37:34.675Z,78.50
2017-11-09T09:40:02.316Z,78.50
2017-11-09T09:42:29.207Z,78.30
2017-11-09T09:44:56.119Z,78.30
2017-11-09T09:47:23.003Z,77.80
2017-11-09T09:49:49.964Z,78.30
2017-11-09T09:52:17.318Z,78.70
2017-11-09T09:54:44.599Z,78.90
2017-11-09T09:57:11.609Z,78.90
2017-11-09T09:59:38.527Z,79.10
2017-11-09T10:02:05.434Z,79.00
2017-11-09T10:04:32.460Z,79.00
2017-11-09T10:06:59.739Z,78.90
2017-11-09T10:09:26.652Z,78.90
2017-11-09T10:11:53.540Z,79.10
2017-11-09T10:14:20.474Z,79.10
2017-11-09T10:16:47.382Z,79.10
2017-11-09T10:19:14.275Z,80.30
2017-11-09T10:21:41.287Z,81.40
2017-11-09T10:24:08.179Z,81.90
2017-11-09T10:26:35.072Z,82.30
2017-11-09T10:29:01.989Z,82.60
2017-11-09T10:31:28.959Z,82.50
2017-11-09T10:33:55.852Z,82.50
2017-11-09T10:36:22.750Z,82.80
2017-11-09T10:38:49.699Z,83.00
2017-11-09T10:41:16.652Z,83.30
2017-11-09T10:43:43.570Z,83.30
2017-11-09T10:46:10.583Z,83.00
2017-11-09T10:48:37.468Z,83.30
2017-11-09T10:51:04.375Z,83.20
2017-11-09T10:53:31.289Z,83.00
2017-11-09T10:55:58.587Z,83.20
2017-11-09T10:58:25.519Z,83.20
2017-11-09T11:00:52.451Z,83.40
2017-11-09T11:03:19.371Z,83.40
2017-11-09T11:05:46.274Z,83.70
2017-11-09T11:08:13.240Z,83.70
2017-11-09T11:10:40.118Z,83.70
2017-11-09T11:13:07.504Z,83.40
2017-11-09T11:15:34.395Z,83.40
2017-11-09T11:18:01.287Z,83.70
2017-11-09T11:20:28.193Z,83.90
2017-11-09T11:22:55.096Z,84.00
2017-11-09T11:25:22.091Z,84.00
2017-11-09T11:27:48.986Z,84.10
2017-11-09T11:30:15.874Z,84.00
2017-11-09T11:32:42.812Z,83.70
2017-11-09T11:35:09.780Z,83.20
2017-11-09T11:37:36.718Z,82.90
2017-11-09T11:40:03.651Z,82.40
2017-11-09T11:42:30.597Z,82.80
2017-11-09T11:44:57.581Z,82.50
2017-11-09T11:47:24.859Z,82.50
2017-11-09T11:49:51.773Z,82.50
2017-11-09T11:52:19.071Z,82.40
2017-11-09T11:54:46.008Z,82.40
2017-11-09T11:57:12.894Z,81.70
2017-11-09T11:59:39.859Z,81.30
2017-11-09T12:02:06.783Z,81.00
2017-11-09T12:04:33.745Z,80.30
2017-11-09T12:07:00.674Z,79.40
2017-11-09T12:09:28.036Z,77.10
2017-11-09T12:11:54.948Z,77.10
2017-11-09T12:14:21.944Z,76.90
2017-11-09T12:16:48.935Z,77.00
2017-11-09T12:19:15.861Z,76.30
2017-11-09T12:21:43.204Z,76.60
2017-11-09T12:24:10.543Z,76.90
2017-11-09T12:26:37.460Z,76.90
2017-11-09T12:29:04.363Z,76.80
2017-11-09T12:31:31.699Z,75.20
2017-11-09T12:33:58.686Z,75.20
2017-11-09T12:36:25.702Z,74.30
2017-11-09T12:38:52.994Z,74.10
2017-11-09T12:41:19.987Z,74.10
2017-11-09T12:43:46.954Z,73.80
2017-11-09T12:46:14.299Z,74.20
2017-11-09T12:48:41.683Z,74.40
2017-11-09T12:51:08.588Z,74.40
2017-11-09T12:53:35.546Z,74.40
2017-11-09T12:56:02.492Z,74.10
2017-11-09T12:58:29.402Z,74.40
2017-11-09T13:00:56.291Z,75.80
2017-11-09T13:03:23.635Z,75.60
2017-11-09T13:05:50.578Z,75.60
2017-11-09T13:08:17.468Z,75.80
2017-11-09T13:10:44.471Z,76.90
2017-11-09T13:13:11.408Z,77.30
2017-11-09T13:15:38.373Z,77.60
2017-11-09T13:18:05.275Z,77.50
2017-11-09T13:20:32.263Z,77.70
2017-11-09T13:22:59.200Z,77.80
2017-11-09T13:25:26.118Z,78.10
2017-11-09T13:27:53.041Z,78.30
2017-11-09T13:30:19.929Z,78.30
2017-11-09T13:32:46.815Z,78.30
2017-11-09T13:35:14.127Z,77.80
2017-11-09T13:37:41.019Z,77.80
2017-11-09T13:40:07.939Z,77.20
2017-11-09T13:42:34.830Z,76.70
2017-11-09T13:45:01.772Z,77.20
2017-11-09T13:47:28.655Z,77.20
2017-11-09T13:49:55.621Z,77.00
2017-11-09T13:52:22.527Z,77.00
2017-11-09T13:54:49.519Z,77.50
2017-11-09T13:57:16.447Z,77.40
2017-11-09T13:59:43.418Z,77.80
2017-11-09T14:02:10.758Z,77.20
2017-11-09T14:04:37.755Z,77.20
2017-11-09T14:07:04.636Z,77.50
2017-11-09T14:09:31.598Z,77.70
2017-11-09T14:11:58.915Z,77.80
2017-11-09T14:14:25.818Z,77.80
2017-11-09T14:16:53.123Z,78.40
2017-11-09T14:19:20.013Z,78.40
2017-11-09T14:21:47.368Z,77.50
2017-11-09T14:24:14.649Z,78.30
2017-11-09T14:26:41.530Z,78.30
2017-11-09T14:29:08.546Z,78.00
2017-11-09T14:31:35.496Z,78.10
2017-11-09T14:34:02.424Z,77.60
2017-11-09T14:36:29.709Z,77.00
2017-11-09T14:38:56.699Z,77.00
2017-11-09T14:41:23.668Z,75.80
2017-11-09T14:43:50.624Z,75.70
2017-11-09T14:46:17.554Z,76.00
2017-11-09T14:48:44.862Z,76.80
2017-11-09T14:51:11.810Z,76.80
2017-11-09T14:53:38.791Z,77.00
2017-11-09T14:56:06.098Z,77.40
2017-11-09T14:58:33.137Z,77.40
2017-11-09T15:01:00.164Z,77.40
2017-11-09T15:03:27.492Z,77.20
2017-11-09T15:05:54.381Z,77.20
2017-11-09T15:08:21.263Z,77.50
2017-11-09T15:10:48.227Z,77.70
2017-11-09T15:13:15.187Z,77.80
2017-11-09T15:15:42.167Z,78.10
2017-11-09T15:18:09.068Z,78.10
2017-11-09T15:20:36.015Z,78.00
2017-11-09T15:23:02.945Z,77.90
2017-11-09T15:25:29.838Z,78.00
2017-11-09T15:27:56.759Z,77.80
2017-11-09T15:30:23.692Z,77.70
2017-11-09T15:32:50.654Z,77.40
2017-11-09T15:35:17.569Z,77.30
2017-11-09T15:37:44.459Z,77.10
2017-11-09T15:40:11.487Z,76.90
2017-11-09T15:42:38.435Z,77.20
2017-11-09T15:45:05.341Z,77.40
2017-11-09T15:47:32.264Z,77.40
2017-11-09T15:49:59.175Z,77.50
2017-11-09T15:52:26.454Z,78.00
2017-11-09T15:54:53.396Z,78.00
2017-11-09T15:57:20.306Z,78.10
2017-11-09T15:59:47.211Z,78.10
2017-11-09T16:02:14.127Z,78.10
2017-11-09T16:04:41.440Z,77.90
2017-11-09T16:07:08.407Z,77.90
2017-11-09T16:09:35.397Z,77.70
2017-11-09T16:12:02.399Z,77.40
2017-11-09T16:14:29.307Z,77.70
2017-11-09T16:16:56.295Z,77.70
2017-11-09T16:19:23.591Z,78.30
2017-11-09T16:21:50.476Z,78.30
2017-11-09T16:24:17.442Z,78.30
2017-11-09T16:26:44.338Z,78.20
2017-11-09T16:29:11.255Z,78.10
2017-11-09T16:31:38.591Z,77.50
2017-11-09T16:34:05.902Z,77.30
2017-11-09T16:36:32.794Z,77.30
2017-11-09T16:38:59.754Z,77.20
2017-11-09T16:41:27.053Z,77.80
2017-11-09T16:43:53.975Z,77.80
2017-11-09T16:46:20.875Z,77.90
2017-11-09T16:48:47.832Z,78.00
2017-11-09T16:51:15.115Z,77.90
2017-11-09T16:53:42.049Z,77.90
2017-11-09T16:56:09.387Z,78.20
2017-11-09T16:58:36.312Z,78.20
2017-11-09T17:01:03.251Z,78.20
2017-11-09T17:03:30.144Z,77.80
2017-11-09T17:05:57.450Z,77.30
2017-11-09T17:08:24.431Z,77.30
2017-11-09T17:10:51.363Z,77.10
2017-11-09T17:13:18.283Z,76.70
2017-11-09T17:15:45.264Z,77.00
2017-11-09T17:18:12.170Z,77.50
2017-11-09T17:20:39.057Z,77.60
2017-11-09T17:23:06.407Z,77.60
2017-11-09T17:25:33.365Z,77.60
2017-11-09T17:28:00.755Z,78.00
2017-11-09T17:30:27.639Z,78.00
2017-11-09T17:32:54.604Z,78.10
2017-11-09T17:35:21.501Z,78.60
2017-11-09T17:37:48.410Z,79.40
2017-11-09T17:40:15.751Z,78.90
2017-11-09T17:42:43.107Z,78.80
2017-11-09T17:45:10.397Z,78.80
2017-11-09T17:47:37.314Z,78.80
2017-11-09T17:50:04.647Z,78.70
2017-11-09T17:52:31.535Z,78.70
2017-11-09T17:54:58.458Z,78.80
2017-11-09T17:57:25.344Z,79.00
2017-11-09T17:59:52.356Z,78.80
2017-11-09T18:02:19.645Z,79.90
2017-11-09T18:04:46.556Z,79.90
2017-11-09T18:07:13.840Z,80.10
2017-11-09T18:09:40.738Z,80.10
2017-11-09T18:12:07.687Z,79.90
2017-11-09T18:14:34.638Z,80.10
2017-11-09T18:17:01.579Z,80.40
2017-11-09T18:19:28.469Z,80.50
2017-11-09T18:21:55.474Z,80.50
2017-11-09T18:24:22.363Z,80.80
2017-11-09T18:26:49.386Z,81.00
2017-11-09T18:29:16.730Z,80.30
2017-11-09T18:31:43.644Z,80.30
2017-11-09T18:34:10.556Z,81.30
2017-11-09T18:36:37.567Z,80.80
2017-11-09T18:39:04.555Z,80.40
2017-11-09T18:41:31.564Z,80.20
2017-11-09T18:43:58.860Z,81.20
2017-11-09T18:46:25.859Z,81.20
2017-11-09T18:48:52.744Z,80.70
2017-11-09T18:51:19.671Z,81.20
2017-11-09T18:53:47.011Z,80.70
2017-11-09T18:56:13.955Z,80.70
2017-11-09T18:58:40.880Z,81.30
2017-11-09T19:01:07.868Z,81.20
2017-11-09T19:03:34.807Z,81.50
2017-11-09T19:06:02.123Z,80.90
2017-11-09T19:08:29.035Z,80.90
2017-11-09T19:10:55.931Z,81.30
2017-11-09T19:13:22.907Z,80.90
2017-11-09T19:15:50.255Z,81.20
2017-11-09T19:18:17.601Z,81.40
2017-11-09T19:20:44.549Z,81.40
2017-11-09T19:23:11.478Z,81.40
2017-11-09T19:25:38.403Z,81.90
2017-11-09T19:28:05.290Z,82.40
2017-11-09T19:30:32.681Z,82.00
2017-11-09T19:32:59.610Z,82.00
2017-11-09T19:35:26.938Z,81.40
2017-11-09T19:37:53.847Z,81.40
2017-11-09T19:40:20.876Z,81.10
2017-11-09T19:42:47.767Z,81.70
2017-11-09T19:45:14.664Z,81.80
2017-11-09T19:47:41.579Z,82.10
2017-11-09T19:50:08.873Z,82.20
2017-11-09T19:52:35.884Z,82.20
2017-11-09T19:55:03.191Z,82.70
2017-11-09T19:57:30.109Z,82.70
2017-11-09T19:59:57.025Z,82.30
2017-11-09T20:02:24.339Z,82.40
2017-11-09T20:04:51.239Z,82.40
2017-11-09T20:07:18.208Z,82.50
2017-11-09T20:09:45.119Z,82.50
2017-11-09T20:12:12.476Z,82.50
2017-11-09T20:14:39.791Z,82.30
2017-11-09T20:17:06.762Z,82.30
2017-11-09T20:19:33.714Z,81.70
2017-11-09T20:22:00.662Z,81.40
2017-11-09T20:24:27.611Z,81.20
2017-11-09T20:26:54.899Z,80.80
2017-11-09T20:29:21.956Z,80.80
2017-11-09T20:31:48.959Z,81.00
2017-11-09T20:34:15.907Z,81.00
2017-11-09T20:36:42.851Z,80.70
2017-11-09T20:39:09.767Z,80.80
2017-11-09T20:41:36.744Z,81.20
2017-11-09T20:44:03.734Z,81.60
2017-11-09T20:46:30.652Z,81.50
2017-11-09T20:48:58.001Z,81.80
2017-11-09T20:51:25.442Z,81.60
2017-11-09T20:53:52.335Z,81.50
2017-11-09T20:56:19.247Z,80.60
2017-11-09T20:58:46.610Z,80.70
2017-11-09T21:01:13.938Z,80.70
2017-11-09T21:03:40.832Z,80.70
2017-11-09T21:06:07.750Z,81.20
2017-11-09T21:08:35.103Z,82.00
2017-11-09T21:11:02.455Z,82.20
2017-11-09T21:13:29.743Z,82.30
2017-11-09T21:15:56.760Z,82.30
2017-11-09T21:18:23.675Z,82.20
2017-11-09T21:20:50.655Z,82.20
2017-11-09T21:23:17.987Z,81.20
2017-11-09T21:25:44.957Z,81.30
2017-11-09T21:28:12.243Z,80.90
2017-11-09T21:30:39.146Z,80.90
2017-11-09T21:33:06.075Z,81.20
2017-11-09T21:35:32.964Z,81.60
2017-11-09T21:37:59.862Z,81.90
2017-11-09T21:40:26.779Z,81.90
2017-11-09T21:42:53.689Z,81.50
2017-11-09T21:45:20.975Z,81.00
2017-11-09T21:47:47.988Z,81.00
2017-11-09T21:50:15.306Z,80.80
2017-11-09T21:52:42.199Z,80.80
2017-11-09T21:55:09.483Z,80.60
2017-11-09T21:57:36.401Z,80.60
2017-11-09T22:00:03.684Z,80.50
2017-11-09T22:02:30.595Z,80.50
2017-11-09T22:04:57.936Z,80.70
2017-11-09T22:07:24.854Z,80.70
2017-11-09T22:09:51.835Z,80.70
2017-11-09T22:12:19.172Z,81.00
2017-11-09T22:14:46.062Z,81.00
2017-11-09T22:17:12.983Z,81.00
2017-11-09T22:19:40.298Z,80.90
2017-11-09T22:22:07.221Z,80.90
2017-11-09T22:24:34.150Z,81.00
2017-11-09T22:27:01.078Z,81.20
2017-11-09T22:29:28.403Z,81.20
2017-11-09T22:31:55.299Z,81.20
2017-11-09T22:34:22.211Z,81.10
2017-11-09T22:36:49.168Z,81.20
2017-11-09T22:39:16.490Z,81.30
2017-11-09T22:41:43.766Z,81.30
2017-11-09T22:44:10.718Z,81.70
2017-11-09T22:46:37.994Z,83.30
2017-11-09T22:49:05.339Z,83.70
2017-11-09T22:51:32.691Z,84.10
2017-11-09T22:54:00.018Z,83.90
2017-11-09T22:56:26.982Z,83.90
2017-11-09T22:58:53.934Z,83.70
2017-11-09T23:01:21.252Z,83.90
2017-11-09T23:03:48.239Z,83.90
2017-11-09T23:06:15.155Z,83.80
2017-11-09T23:08:42.055Z,83.40
2017-11-09T23:11:08.980Z,83.60
2017-11-09T23:13:36.298Z,84.70
2017-11-09T23:16:03.283Z,84.70
2017-11-09T23:18:30.598Z,84.90
2017-11-09T23:20:57.507Z,84.90
2017-11-09T23:23:24.386Z,84.50
2017-11-09T23:25:51.313Z,83.90
2017-11-09T23:28:18.326Z,83.30
2017-11-09T23:30:45.676Z,82.60
2017-11-09T23:33:12.963Z,82.20
2017-11-09T23:35:39.882Z,82.20
2017-11-09T23:38:07.226Z,81.90
2017-11-09T23:40:34.152Z,81.90
2017-11-09T23:43:01.043Z,81.90
2017-11-09T23:45:27.964Z,81.80
2017-11-09T23:47:55.322Z,81.90
2017-11-09T23:50:22.273Z,81.90
2017-11-09T23:52:49.631Z,82.50
2017-11-09T23:55:16.966Z,82.50
2017-11-09T23:57:43.872Z,82.50
